Festus, Missouri
Current Conditions -  °F | °C
As of 2:10 AM on Monday 24 Nov 2014 (Local Time) from KCPS Reporting Station
Light Rain Light Rain  
Wind Chill: 51°   Ceiling: 3100
Heat Index: 51°   Visibility: 8mi
Dew Point: 47°   Wind: 26mph
Humidity: 86%   Direction: 290°WNW
Pressure: 29.23"   Gusts: 33mph
Location:  38.22°N, 90.4°W
Report Text: KCPS 240810Z AUTO 29023G29KT 8SM -RA FEW007 BKN031 OVC046 11/08 A2923 RMK AO2 PK WND 29030/0758 WSHFT 0751 PRESRR P0006 T01060083 TSNO
Loading
Personal Weather Stations






























Interactive Weather Map New forecast layout! Learn more

10-Day Weather Forecast

Advertisements
Track Severe Weather on mobile